createdAt,value
2022-11-27T00:02:22.565Z,70.84
2022-11-27T00:04:49.275Z,69.69
2022-11-27T00:07:15.981Z,71.97
2022-11-27T00:09:42.736Z,71.72
2022-11-27T00:12:09.436Z,72.43
2022-11-27T00:14:36.027Z,72.44
2022-11-27T00:17:02.630Z,73.43
2022-11-27T00:19:29.240Z,72.48
2022-11-27T00:21:55.851Z,73.51
2022-11-27T00:24:22.456Z,74.58
2022-11-27T00:26:49.058Z,73.62
2022-11-27T00:29:15.709Z,74.38
2022-11-27T00:31:42.451Z,75.15
2022-11-27T00:34:10.481Z,73.43
2022-11-27T00:36:38.323Z,74.03
2022-11-27T00:39:08.583Z,72.39
2022-11-27T00:41:35.251Z,71.90
2022-11-27T00:44:01.838Z,72.61
2022-11-27T00:46:31.810Z,72.67
2022-11-27T00:49:00.920Z,72.19
2022-11-27T00:51:28.970Z,72.31
2022-11-27T00:53:56.136Z,71.02
2022-11-27T00:56:26.596Z,68.88
2022-11-27T00:58:53.994Z,68.84
2022-11-27T01:01:24.424Z,69.54
2022-11-27T01:03:51.750Z,69.85
2022-11-27T01:06:19.861Z,70.25
2022-11-27T01:08:46.785Z,70.69
2022-11-27T01:11:22.998Z,70.23
2022-11-27T01:13:49.741Z,69.56
2022-11-27T01:16:19.882Z,68.92
2022-11-27T01:18:48.726Z,67.50
2022-11-27T01:21:19.129Z,68.95
2022-11-27T01:23:47.161Z,72.12
2022-11-27T01:26:15.467Z,71.79
2022-11-27T01:28:42.383Z,73.09
2022-11-27T01:31:18.312Z,69.63
2022-11-27T01:33:46.202Z,70.67
2022-11-27T01:36:17.311Z,70.37
2022-11-27T01:38:44.199Z,71.24
2022-11-27T01:41:18.899Z,70.75
2022-11-27T01:43:46.867Z,69.80
2022-11-27T01:46:33.054Z,68.58
2022-11-27T01:49:21.260Z,70.61
2022-11-27T01:51:55.142Z,69.50
2022-11-27T01:54:27.139Z,67.73
2022-11-27T01:56:59.348Z,65.71
2022-11-27T01:59:26.081Z,64.51
2022-11-27T02:01:52.763Z,64.34
2022-11-27T02:04:19.777Z,63.98
2022-11-27T02:06:46.693Z,65.79
2022-11-27T02:09:14.894Z,65.66
2022-11-27T02:11:51.902Z,69.77
2022-11-27T02:14:18.439Z,69.43
2022-11-27T02:16:55.068Z,66.91
2022-11-27T02:19:50.747Z,65.81
2022-11-27T02:22:59.941Z,67.30
2022-11-27T02:26:01.420Z,65.69
2022-11-27T02:28:46.195Z,64.50
2022-11-27T02:31:20.685Z,63.69
2022-11-27T02:33:54.978Z,66.89
2022-11-27T02:36:29.770Z,67.80
2022-11-27T02:39:16.858Z,65.55
2022-11-27T02:42:15.205Z,66.90
2022-11-27T02:44:50.796Z,64.92
2022-11-27T02:47:19.409Z,66.77
2022-11-27T02:49:47.366Z,66.51
2022-11-27T02:52:18.788Z,69.16
2022-11-27T02:54:51.881Z,68.95
2022-11-27T02:57:22.850Z,68.32
2022-11-27T02:59:52.137Z,68.75
2022-11-27T03:02:26.776Z,66.79
2022-11-27T03:04:59.399Z,66.75
2022-11-27T03:07:37.574Z,66.54
2022-11-27T03:10:16.785Z,65.19
2022-11-27T03:12:43.497Z,65.01
2022-11-27T03:15:10.693Z,64.25
2022-11-27T03:18:02.397Z,63.36
2022-11-27T03:20:41.073Z,62.00
2022-11-27T03:23:07.722Z,61.61
2022-11-27T03:25:34.493Z,65.33
2022-11-27T03:28:09.530Z,66.51
2022-11-27T03:30:36.488Z,66.71
2022-11-27T03:33:03.117Z,68.01
2022-11-27T03:35:30.757Z,67.91
2022-11-27T03:37:57.606Z,67.62
2022-11-27T03:40:32.829Z,65.85
2022-11-27T03:43:13.603Z,65.95
2022-11-27T03:46:07.631Z,65.50
2022-11-27T03:48:51.077Z,67.23
2022-11-27T03:51:29.981Z,66.32
2022-11-27T03:53:59.500Z,65.52
2022-11-27T03:56:47.187Z,67.65
2022-11-27T03:59:28.353Z,67.61
2022-11-27T04:01:54.990Z,70.34
2022-11-27T04:04:21.740Z,69.89
2022-11-27T04:06:48.403Z,71.47
2022-11-27T04:09:15.001Z,70.53
2022-11-27T04:11:41.596Z,68.41
2022-11-27T04:14:28.132Z,65.94
2022-11-27T04:17:12.430Z,64.43
2022-11-27T04:19:39.028Z,64.31
2022-11-27T04:22:05.740Z,63.72
2022-11-27T04:24:32.429Z,63.19
2022-11-27T04:26:59.030Z,64.62
2022-11-27T04:29:25.626Z,63.04
2022-11-27T04:31:52.339Z,62.77
2022-11-27T04:34:19.105Z,62.45
2022-11-27T04:36:45.743Z,63.03
2022-11-27T04:39:12.864Z,62.55
2022-11-27T04:41:39.951Z,62.02
2022-11-27T04:44:06.730Z,61.47
2022-11-27T04:46:33.677Z,61.22
2022-11-27T04:49:00.376Z,61.69
2022-11-27T04:51:26.994Z,60.60
2022-11-27T04:53:56.257Z,60.53
2022-11-27T04:56:23.464Z,61.01
2022-11-27T04:58:50.065Z,60.59
2022-11-27T05:01:16.841Z,61.05
2022-11-27T05:03:43.521Z,61.15
2022-11-27T05:06:10.133Z,60.80
2022-11-27T05:08:36.732Z,60.79
2022-11-27T05:11:06.570Z,60.56
2022-11-27T05:13:34.021Z,60.94
2022-11-27T05:16:01.416Z,61.49
2022-11-27T05:18:28.152Z,61.48
2022-11-27T05:21:06.581Z,61.21
2022-11-27T05:23:34.294Z,61.76
2022-11-27T05:26:01.314Z,61.33
2022-11-27T05:28:27.942Z,61.59
2022-11-27T05:30:54.785Z,61.42
2022-11-27T05:33:21.511Z,61.45
2022-11-27T05:35:48.159Z,61.85
2022-11-27T05:38:14.801Z,62.09
2022-11-27T05:40:41.409Z,61.96
2022-11-27T05:43:08.003Z,62.65
2022-11-27T05:45:34.722Z,62.75
2022-11-27T05:48:01.326Z,62.54
2022-11-27T05:50:29.112Z,62.34
2022-11-27T05:52:55.698Z,61.99
2022-11-27T05:55:22.277Z,62.57
2022-11-27T05:57:48.883Z,65.00
2022-11-27T06:00:16.324Z,63.80
2022-11-27T06:02:43.078Z,63.85
2022-11-27T06:05:09.857Z,63.03
2022-11-27T06:07:36.553Z,63.82
2022-11-27T06:10:03.304Z,63.02
2022-11-27T06:12:32.321Z,63.73
2022-11-27T06:14:58.945Z,63.39
2022-11-27T06:17:25.536Z,62.77
2022-11-27T06:19:52.115Z,62.79
2022-11-27T06:22:18.730Z,62.42
2022-11-27T06:24:45.379Z,62.51
2022-11-27T06:27:12.010Z,62.29
2022-11-27T06:29:38.674Z,64.20
2022-11-27T06:32:06.826Z,63.68
2022-11-27T06:34:33.600Z,64.57
2022-11-27T06:37:00.294Z,63.95
2022-11-27T06:39:27.434Z,64.29
2022-11-27T06:41:54.030Z,64.37
2022-11-27T06:44:20.625Z,64.88
2022-11-27T06:46:47.283Z,63.59
2022-11-27T06:49:13.907Z,64.79
2022-11-27T06:51:40.657Z,64.28
2022-11-27T06:54:07.270Z,64.24
2022-11-27T06:56:33.988Z,64.28
2022-11-27T06:59:01.898Z,63.79
2022-11-27T07:01:30.460Z,64.24
2022-11-27T07:03:58.287Z,64.04
2022-11-27T07:06:27.167Z,63.73
2022-11-27T07:08:55.278Z,64.19
2022-11-27T07:11:25.299Z,64.96
2022-11-27T07:13:55.514Z,64.64
2022-11-27T07:16:22.253Z,68.27
2022-11-27T07:19:00.056Z,67.49
2022-11-27T07:21:27.661Z,67.64
2022-11-27T07:23:56.158Z,66.17
2022-11-27T07:26:28.084Z,64.84
2022-11-27T07:28:55.534Z,63.74
2022-11-27T07:31:27.638Z,63.21
2022-11-27T07:33:59.798Z,63.14
2022-11-27T07:36:31.030Z,62.44
2022-11-27T07:38:57.788Z,62.76
2022-11-27T07:41:27.964Z,61.44
2022-11-27T07:43:57.323Z,59.83
2022-11-27T07:46:24.746Z,59.07
2022-11-27T07:48:52.400Z,59.46
2022-11-27T07:51:21.409Z,59.30
2022-11-27T07:53:49.036Z,60.43
2022-11-27T07:56:15.864Z,60.80
2022-11-27T07:58:42.689Z,60.81
2022-11-27T08:01:11.922Z,60.74
2022-11-27T08:03:38.665Z,62.04
2022-11-27T08:06:14.669Z,61.85
2022-11-27T08:08:41.333Z,61.06
2022-11-27T08:11:18.468Z,61.37
2022-11-27T08:13:45.436Z,64.70
2022-11-27T08:16:12.217Z,63.29
2022-11-27T08:18:38.896Z,63.13
2022-11-27T08:21:05.669Z,60.18
2022-11-27T08:23:32.652Z,59.37
2022-11-27T08:25:59.270Z,58.55
2022-11-27T08:28:25.971Z,58.09
2022-11-27T08:30:58.170Z,57.67
2022-11-27T08:33:26.268Z,57.89
2022-11-27T08:35:52.897Z,57.93
2022-11-27T08:38:20.430Z,56.91
2022-11-27T08:40:54.637Z,57.85
2022-11-27T08:43:21.363Z,58.83
2022-11-27T08:45:48.583Z,58.59
2022-11-27T08:48:15.832Z,56.90
2022-11-27T08:50:42.573Z,57.47
2022-11-27T08:53:09.277Z,54.46
2022-11-27T08:55:35.861Z,54.02
2022-11-27T08:58:02.500Z,54.31
2022-11-27T09:00:29.356Z,54.38
2022-11-27T09:02:56.181Z,53.77
2022-11-27T09:05:22.760Z,55.40
2022-11-27T09:07:50.788Z,52.50
2022-11-27T09:10:17.881Z,51.45
2022-11-27T09:12:44.653Z,52.17
2022-11-27T09:15:12.683Z,52.87
2022-11-27T09:17:39.810Z,52.23
2022-11-27T09:20:07.640Z,52.81
2022-11-27T09:22:35.285Z,52.45
2022-11-27T09:25:02.124Z,52.55
2022-11-27T09:27:28.921Z,51.33
2022-11-27T09:29:55.564Z,52.45
2022-11-27T09:32:23.565Z,52.83
2022-11-27T09:34:53.305Z,53.78
2022-11-27T09:37:19.972Z,51.96
2022-11-27T09:39:46.587Z,50.38
2022-11-27T09:42:52.003Z,49.45
2022-11-27T09:45:19.088Z,49.23
2022-11-27T09:47:53.401Z,47.67
2022-11-27T09:50:29.412Z,47.57
2022-11-27T09:53:35.666Z,48.72
2022-11-27T09:56:10.960Z,48.42
2022-11-27T09:58:43.858Z,48.05
2022-11-27T10:01:14.030Z,49.75
2022-11-27T10:03:43.065Z,49.53
2022-11-27T10:06:18.641Z,50.52
2022-11-27T10:08:53.511Z,50.46
2022-11-27T10:11:33.821Z,50.94
2022-11-27T10:14:00.418Z,50.22
2022-11-27T10:16:44.571Z,49.86
2022-11-27T10:19:35.671Z,48.68
2022-11-27T10:22:42.444Z,50.36
2022-11-27T10:25:45.284Z,51.59
2022-11-27T10:28:37.103Z,51.26
2022-11-27T10:31:21.920Z,50.20
2022-11-27T10:33:55.125Z,48.68
2022-11-27T10:36:37.121Z,49.77
2022-11-27T10:39:13.578Z,48.78
2022-11-27T10:41:53.842Z,49.58
2022-11-27T10:44:34.486Z,49.26
2022-11-27T10:47:10.260Z,48.90
2022-11-27T10:49:40.661Z,48.89
2022-11-27T10:52:13.998Z,48.28
2022-11-27T10:54:43.837Z,46.52
2022-11-27T10:57:47.372Z,48.00
2022-11-27T11:00:24.585Z,48.19
2022-11-27T11:03:06.020Z,47.97
2022-11-27T11:05:50.949Z,49.50
2022-11-27T11:08:21.718Z,47.67
2022-11-27T11:11:05.747Z,47.22
2022-11-27T11:13:33.219Z,46.69
2022-11-27T11:16:05.493Z,49.20
2022-11-27T11:18:41.699Z,48.42
2022-11-27T11:21:27.123Z,48.66
2022-11-27T11:24:03.675Z,48.65
2022-11-27T11:26:45.174Z,48.29
2022-11-27T11:29:28.706Z,48.35
2022-11-27T11:31:58.509Z,49.44
2022-11-27T11:34:30.952Z,48.75
2022-11-27T11:37:19.298Z,48.02
2022-11-27T11:39:53.609Z,47.57
2022-11-27T11:42:29.110Z,48.87
2022-11-27T11:45:05.289Z,49.10
2022-11-27T11:47:32.663Z,48.49
2022-11-27T11:49:59.463Z,48.17
2022-11-27T11:52:34.554Z,48.77
2022-11-27T11:55:18.208Z,47.04
2022-11-27T11:57:56.107Z,48.37
2022-11-27T12:00:37.627Z,47.06
2022-11-27T12:03:33.808Z,46.14
2022-11-27T12:06:24.481Z,45.66
2022-11-27T12:09:08.182Z,45.38
2022-11-27T12:11:37.371Z,47.12
2022-11-27T12:14:18.239Z,47.78
2022-11-27T12:16:50.406Z,46.27
2022-11-27T12:19:35.297Z,46.92
2022-11-27T12:22:16.834Z,45.50
2022-11-27T12:25:18.782Z,46.55
2022-11-27T12:28:19.670Z,46.08
2022-11-27T12:31:06.054Z,44.47
2022-11-27T12:34:12.968Z,44.48
2022-11-27T12:37:13.720Z,44.74
2022-11-27T12:40:24.258Z,43.86
2022-11-27T12:43:13.482Z,44.37
2022-11-27T12:45:53.689Z,43.99
2022-11-27T12:48:31.674Z,43.58
2022-11-27T12:51:15.728Z,43.30
2022-11-27T12:53:50.185Z,43.75
2022-11-27T12:56:40.351Z,44.31
2022-11-27T12:59:27.253Z,44.90
2022-11-27T13:02:12.508Z,44.43
2022-11-27T13:04:52.875Z,47.27
2022-11-27T13:07:55.012Z,47.18
2022-11-27T13:10:33.115Z,47.07
2022-11-27T13:13:12.157Z,46.77
2022-11-27T13:15:42.838Z,47.28
2022-11-27T13:18:39.023Z,47.80
2022-11-27T13:21:22.384Z,46.68
2022-11-27T13:23:50.290Z,48.13
2022-11-27T13:26:31.600Z,46.82
2022-11-27T13:29:15.285Z,45.53
2022-11-27T13:31:45.636Z,46.17
2022-11-27T13:34:22.942Z,45.15
2022-11-27T13:37:03.163Z,45.89
2022-11-27T13:39:42.090Z,46.65
2022-11-27T13:42:11.610Z,45.90
2022-11-27T13:44:44.210Z,46.18
2022-11-27T13:47:16.356Z,45.28
2022-11-27T13:49:43.644Z,46.01
2022-11-27T13:52:14.876Z,46.23
2022-11-27T13:54:56.821Z,46.08
2022-11-27T13:57:25.209Z,45.55
2022-11-27T14:00:13.940Z,45.69
2022-11-27T14:02:44.759Z,45.51
2022-11-27T14:05:14.037Z,45.76
2022-11-27T14:07:44.594Z,44.82
2022-11-27T14:10:27.353Z,46.67
2022-11-27T14:12:56.809Z,48.31
2022-11-27T14:15:28.257Z,47.80
2022-11-27T14:18:14.699Z,47.51
2022-11-27T14:20:56.301Z,46.93
2022-11-27T14:23:35.229Z,46.46
2022-11-27T14:26:15.194Z,46.79
2022-11-27T14:28:46.008Z,46.70
2022-11-27T14:31:32.475Z,45.77
2022-11-27T14:34:14.796Z,45.46
2022-11-27T14:36:44.544Z,47.74
2022-11-27T14:39:22.340Z,47.49
2022-11-27T14:42:04.515Z,46.33
2022-11-27T14:44:32.347Z,46.54
2022-11-27T14:47:07.150Z,45.96
2022-11-27T14:49:34.302Z,46.27
2022-11-27T14:52:06.719Z,45.83
2022-11-27T14:54:39.170Z,47.33
2022-11-27T14:57:11.937Z,48.97
2022-11-27T14:59:38.669Z,48.04
2022-11-27T15:02:14.220Z,46.92
2022-11-27T15:04:45.877Z,47.80
2022-11-27T15:07:26.192Z,47.50
2022-11-27T15:09:57.312Z,47.28
2022-11-27T15:12:29.579Z,47.98
2022-11-27T15:15:14.365Z,47.42
2022-11-27T15:17:48.241Z,48.12
2022-11-27T15:20:21.712Z,48.38
2022-11-27T15:22:55.321Z,48.26
2022-11-27T15:25:35.405Z,48.50
2022-11-27T15:28:02.409Z,50.69
2022-11-27T15:30:29.341Z,49.85
2022-11-27T15:32:55.984Z,49.25
2022-11-27T15:35:31.145Z,50.35
2022-11-27T15:37:58.278Z,50.57
2022-11-27T15:40:32.323Z,49.34
2022-11-27T15:42:59.230Z,50.73
2022-11-27T15:45:32.922Z,50.14
2022-11-27T15:48:01.577Z,51.08
2022-11-27T15:50:31.920Z,49.28
2022-11-27T15:52:58.553Z,49.11
2022-11-27T15:55:25.173Z,48.92
2022-11-27T15:57:51.917Z,49.39
2022-11-27T16:00:19.292Z,49.01
2022-11-27T16:02:45.968Z,49.45
2022-11-27T16:05:12.628Z,48.45
2022-11-27T16:07:39.331Z,48.85
2022-11-27T16:10:06.536Z,49.23
2022-11-27T16:12:33.399Z,49.87
2022-11-27T16:15:00.006Z,50.93
2022-11-27T16:17:26.683Z,51.25
2022-11-27T16:19:53.273Z,50.26
2022-11-27T16:22:19.898Z,51.12
2022-11-27T16:24:46.514Z,51.79
2022-11-27T16:27:13.193Z,51.76
2022-11-27T16:29:39.866Z,49.98
2022-11-27T16:32:06.545Z,50.47
2022-11-27T16:34:33.251Z,50.77
2022-11-27T16:36:59.849Z,50.27
2022-11-27T16:39:26.672Z,50.42
2022-11-27T16:41:53.285Z,50.57
2022-11-27T16:44:19.945Z,50.08
2022-11-27T16:46:46.539Z,50.17
2022-11-27T16:49:13.479Z,52.16
2022-11-27T16:51:40.699Z,52.10
2022-11-27T16:54:10.375Z,51.54
2022-11-27T16:56:37.845Z,51.24
2022-11-27T16:59:09.645Z,51.49
2022-11-27T17:01:37.414Z,52.50
2022-11-27T17:04:05.765Z,53.20
2022-11-27T17:06:33.550Z,52.56
2022-11-27T17:09:02.597Z,52.24
2022-11-27T17:11:33.056Z,51.29
2022-11-27T17:14:02.412Z,51.84
2022-11-27T17:16:29.160Z,52.04
2022-11-27T17:18:55.862Z,52.82
2022-11-27T17:21:31.254Z,52.19
2022-11-27T17:24:01.202Z,52.86
2022-11-27T17:26:30.448Z,52.26
2022-11-27T17:28:57.454Z,51.98
2022-11-27T17:31:29.426Z,52.05
2022-11-27T17:33:56.809Z,51.87
2022-11-27T17:36:25.155Z,52.34
2022-11-27T17:38:52.148Z,51.80
2022-11-27T17:41:19.634Z,52.00
2022-11-27T17:43:47.509Z,51.94
2022-11-27T17:46:23.425Z,53.12
2022-11-27T17:48:51.526Z,51.73
2022-11-27T17:51:19.151Z,52.24
2022-11-27T17:53:45.986Z,53.27
2022-11-27T17:56:15.515Z,52.18
2022-11-27T17:58:42.393Z,51.42
2022-11-27T18:01:18.707Z,53.43
2022-11-27T18:03:45.458Z,52.17
2022-11-27T18:06:13.764Z,53.86
2022-11-27T18:08:40.730Z,53.84
2022-11-27T18:11:13.294Z,54.30
2022-11-27T18:13:40.051Z,52.86
2022-11-27T18:16:16.248Z,52.29
2022-11-27T18:18:43.357Z,52.10
2022-11-27T18:21:18.092Z,51.95
2022-11-27T18:24:20.724Z,52.97
2022-11-27T18:27:00.490Z,52.50
2022-11-27T18:29:19.865Z,52.52
2022-11-27T18:31:46.549Z,53.51
2022-11-27T18:34:13.180Z,52.97
2022-11-27T18:36:39.756Z,52.90
2022-11-27T18:39:06.345Z,52.48
2022-11-27T18:41:32.941Z,54.58
2022-11-27T18:43:59.544Z,53.42
2022-11-27T18:46:26.448Z,54.03
2022-11-27T18:48:53.163Z,53.70
2022-11-27T18:51:22.781Z,54.56
2022-11-27T18:53:51.136Z,54.14
2022-11-27T18:56:21.281Z,54.62
2022-11-27T18:58:48.948Z,54.87
2022-11-27T19:01:18.527Z,54.18
2022-11-27T19:03:45.607Z,53.77
2022-11-27T19:06:14.511Z,52.92
2022-11-27T19:08:41.401Z,52.54
2022-11-27T19:11:15.083Z,51.51
2022-11-27T19:13:43.039Z,51.27
2022-11-27T19:16:18.561Z,50.92
2022-11-27T19:18:45.432Z,51.37
2022-11-27T19:21:18.256Z,51.12
2022-11-27T19:23:45.643Z,51.54
2022-11-27T19:26:18.307Z,51.54
2022-11-27T19:28:47.711Z,51.94
2022-11-27T19:31:14.587Z,52.01
2022-11-27T19:33:41.252Z,51.97
2022-11-27T19:36:14.422Z,52.90
2022-11-27T19:38:42.542Z,55.44
2022-11-27T19:41:11.989Z,54.37
2022-11-27T19:43:39.029Z,54.09
2022-11-27T19:46:17.071Z,53.82
2022-11-27T19:48:44.250Z,53.55
2022-11-27T19:51:11.408Z,53.24
2022-11-27T19:53:38.338Z,53.00
2022-11-27T19:56:08.805Z,53.49
2022-11-27T19:58:38.022Z,53.77
2022-11-27T20:01:10.308Z,54.06
2022-11-27T20:03:37.705Z,53.41
2022-11-27T20:06:07.593Z,53.71
2022-11-27T20:08:34.833Z,54.10
2022-11-27T20:11:04.222Z,53.16
2022-11-27T20:13:30.983Z,52.89
2022-11-27T20:15:57.930Z,53.15
2022-11-27T20:18:24.650Z,53.10
2022-11-27T20:20:51.291Z,53.51
2022-11-27T20:23:18.289Z,53.58
2022-11-27T20:25:44.904Z,54.29
2022-11-27T20:28:11.536Z,54.98
2022-11-27T20:30:38.386Z,54.88
2022-11-27T20:33:07.736Z,54.46
2022-11-27T20:35:34.640Z,55.97
2022-11-27T20:38:01.233Z,55.22
2022-11-27T20:40:27.860Z,54.53
2022-11-27T20:42:54.470Z,55.43
2022-11-27T20:45:21.313Z,57.02
2022-11-27T20:47:47.917Z,55.99
2022-11-27T20:50:14.584Z,55.49
2022-11-27T20:52:41.227Z,55.41
2022-11-27T20:55:08.112Z,55.87
2022-11-27T20:57:34.740Z,54.80
2022-11-27T21:00:01.415Z,54.75
2022-11-27T21:02:28.183Z,54.92
2022-11-27T21:04:54.842Z,54.49
2022-11-27T21:07:21.517Z,54.71
2022-11-27T21:09:48.191Z,54.65
2022-11-27T21:12:14.809Z,54.64
2022-11-27T21:14:44.066Z,55.16
2022-11-27T21:17:10.746Z,54.07
2022-11-27T21:19:37.433Z,53.77
2022-11-27T21:22:04.044Z,54.07
2022-11-27T21:24:30.659Z,54.44
2022-11-27T21:26:57.343Z,54.09
2022-11-27T21:29:24.139Z,53.34
2022-11-27T21:31:51.350Z,54.49
2022-11-27T21:34:18.040Z,55.09
2022-11-27T21:36:47.619Z,54.46
2022-11-27T21:39:15.498Z,54.44
2022-11-27T21:41:42.130Z,54.87
2022-11-27T21:44:09.726Z,55.77
2022-11-27T21:46:36.535Z,56.28
2022-11-27T21:49:03.408Z,56.76
2022-11-27T21:51:30.253Z,55.57
2022-11-27T21:53:58.826Z,56.66
2022-11-27T21:56:28.037Z,57.00
2022-11-27T21:58:54.725Z,56.25
2022-11-27T22:01:24.670Z,56.20
2022-11-27T22:03:51.966Z,56.37
2022-11-27T22:06:18.719Z,56.42
2022-11-27T22:08:48.205Z,55.83
2022-11-27T22:11:19.501Z,55.79
2022-11-27T22:13:46.133Z,55.71
2022-11-27T22:16:19.247Z,55.85
2022-11-27T22:18:46.774Z,56.59
2022-11-27T22:21:14.238Z,58.25
2022-11-27T22:23:41.425Z,59.31
2022-11-27T22:26:12.388Z,58.48
2022-11-27T22:28:39.405Z,59.52
2022-11-27T22:31:12.484Z,58.24
2022-11-27T22:33:40.122Z,57.36
2022-11-27T22:36:27.184Z,57.15
2022-11-27T22:38:55.308Z,57.41
2022-11-27T22:41:24.722Z,56.63
2022-11-27T22:43:52.255Z,56.99
2022-11-27T22:46:28.539Z,56.93
2022-11-27T22:48:56.942Z,56.60
2022-11-27T22:51:25.504Z,56.56
2022-11-27T22:53:52.800Z,56.50
2022-11-27T22:56:19.486Z,55.92
2022-11-27T22:58:46.128Z,56.27
2022-11-27T23:01:25.341Z,56.53
2022-11-27T23:03:53.315Z,56.45
2022-11-27T23:06:22.517Z,57.22
2022-11-27T23:08:50.501Z,59.25
2022-11-27T23:11:23.632Z,58.78
2022-11-27T23:13:52.961Z,58.54
2022-11-27T23:16:20.105Z,58.38
2022-11-27T23:18:47.929Z,59.35
2022-11-27T23:21:20.547Z,59.08
2022-11-27T23:23:47.313Z,59.05
2022-11-27T23:26:18.381Z,60.95
2022-11-27T23:28:46.839Z,60.13
2022-11-27T23:31:31.648Z,59.99
2022-11-27T23:34:01.094Z,60.19
2022-11-27T23:36:29.217Z,60.33
2022-11-27T23:38:56.336Z,60.42
2022-11-27T23:41:25.192Z,60.56
2022-11-27T23:43:53.421Z,61.05
2022-11-27T23:46:22.728Z,63.43
2022-11-27T23:48:49.795Z,62.03
2022-11-27T23:51:19.986Z,61.82
2022-11-27T23:53:48.021Z,61.04
2022-11-27T23:56:18.133Z,61.51
2022-11-27T23:58:47.357Z,60.55
